sensor_id;sensor_type;location;lat;lon;timestamp;P1;durP1;ratioP1;P2;durP2;ratioP2
48578;SDS011;34357;51.948;6.132;2023-01-05T00:01:37;40.08;;;7.43;;
48578;SDS011;34357;51.948;6.132;2023-01-05T00:04:03;43.42;;;6.32;;
48578;SDS011;34357;51.948;6.132;2023-01-05T00:06:29;36.90;;;5.60;;
48578;SDS011;34357;51.948;6.132;2023-01-05T00:08:56;33.10;;;5.38;;
48578;SDS011;34357;51.948;6.132;2023-01-05T00:11:23;36.75;;;4.78;;
48578;SDS011;34357;51.948;6.132;2023-01-05T00:14:12;37.90;;;5.45;;
48578;SDS011;34357;51.948;6.132;2023-01-05T00:16:59;45.80;;;6.88;;
48578;SDS011;34357;51.948;6.132;2023-01-05T00:19:43;47.78;;;6.35;;
48578;SDS011;34357;51.948;6.132;2023-01-05T00:22:28;37.10;;;5.18;;
48578;SDS011;34357;51.948;6.132;2023-01-05T00:25:01;36.00;;;5.18;;
48578;SDS011;34357;51.948;6.132;2023-01-05T00:27:34;40.05;;;6.55;;
48578;SDS011;34357;51.948;6.132;2023-01-05T00:30:00;42.95;;;6.95;;
48578;SDS011;34357;51.948;6.132;2023-01-05T00:32:27;31.55;;;5.63;;
48578;SDS011;34357;51.948;6.132;2023-01-05T00:34:53;42.95;;;5.70;;
48578;SDS011;34357;51.948;6.132;2023-01-05T00:37:24;39.22;;;6.07;;
48578;SDS011;34357;51.948;6.132;2023-01-05T00:39:52;36.15;;;5.82;;
48578;SDS011;34357;51.948;6.132;2023-01-05T00:42:19;42.80;;;5.97;;
48578;SDS011;34357;51.948;6.132;2023-01-05T00:44:45;43.10;;;6.68;;
48578;SDS011;34357;51.948;6.132;2023-01-05T00:47:11;49.97;;;7.20;;
48578;SDS011;34357;51.948;6.132;2023-01-05T00:49:37;57.22;;;9.18;;
48578;SDS011;34357;51.948;6.132;2023-01-05T00:52:03;53.80;;;7.28;;
48578;SDS011;34357;51.948;6.132;2023-01-05T00:54:29;49.15;;;7.60;;
48578;SDS011;34357;51.948;6.132;2023-01-05T00:56:55;43.17;;;5.53;;
48578;SDS011;34357;51.948;6.132;2023-01-05T00:59:21;49.30;;;7.95;;
48578;SDS011;34357;51.948;6.132;2023-01-05T01:01:47;46.08;;;7.00;;
48578;SDS011;34357;51.948;6.132;2023-01-05T01:04:14;49.80;;;6.90;;
48578;SDS011;34357;51.948;6.132;2023-01-05T01:06:40;50.80;;;7.78;;
48578;SDS011;34357;51.948;6.132;2023-01-05T01:09:06;47.05;;;7.13;;
48578;SDS011;34357;51.948;6.132;2023-01-05T01:11:32;59.03;;;8.07;;
48578;SDS011;34357;51.948;6.132;2023-01-05T01:13:58;55.75;;;8.07;;
48578;SDS011;34357;51.948;6.132;2023-01-05T01:16:23;50.30;;;7.25;;
48578;SDS011;34357;51.948;6.132;2023-01-05T01:18:49;53.30;;;7.68;;
48578;SDS011;34357;51.948;6.132;2023-01-05T01:21:15;46.72;;;7.70;;
48578;SDS011;34357;51.948;6.132;2023-01-05T01:23:41;47.65;;;7.15;;
48578;SDS011;34357;51.948;6.132;2023-01-05T01:26:08;58.30;;;8.40;;
48578;SDS011;34357;51.948;6.132;2023-01-05T01:28:36;45.63;;;5.93;;
48578;SDS011;34357;51.948;6.132;2023-01-05T01:31:02;48.65;;;7.43;;
48578;SDS011;34357;51.948;6.132;2023-01-05T01:33:29;50.00;;;7.47;;
48578;SDS011;34357;51.948;6.132;2023-01-05T01:35:55;51.42;;;7.18;;
48578;SDS011;34357;51.948;6.132;2023-01-05T01:38:22;50.53;;;7.15;;
48578;SDS011;34357;51.948;6.132;2023-01-05T01:40:49;45.72;;;6.82;;
48578;SDS011;34357;51.948;6.132;2023-01-05T01:43:19;51.58;;;8.20;;
48578;SDS011;34357;51.948;6.132;2023-01-05T01:46:05;56.28;;;8.05;;
48578;SDS011;34357;51.948;6.132;2023-01-05T01:48:31;55.90;;;8.27;;
48578;SDS011;34357;51.948;6.132;2023-01-05T01:50:58;51.28;;;8.23;;
48578;SDS011;34357;51.948;6.132;2023-01-05T01:53:30;59.08;;;8.25;;
48578;SDS011;34357;51.948;6.132;2023-01-05T01:56:02;49.63;;;6.72;;
48578;SDS011;34357;51.948;6.132;2023-01-05T01:58:33;45.67;;;6.57;;
48578;SDS011;34357;51.948;6.132;2023-01-05T02:00:58;51.65;;;6.65;;
48578;SDS011;34357;51.948;6.132;2023-01-05T02:03:26;55.00;;;8.15;;
48578;SDS011;34357;51.948;6.132;2023-01-05T02:05:52;46.25;;;6.20;;
48578;SDS011;34357;51.948;6.132;2023-01-05T02:08:19;31.92;;;5.60;;
48578;SDS011;34357;51.948;6.132;2023-01-05T02:34:13;48.88;;;7.30;;
48578;SDS011;34357;51.948;6.132;2023-01-05T02:42:23;43.40;;;6.88;;
48578;SDS011;34357;51.948;6.132;2023-01-05T02:44:50;34.60;;;5.20;;
48578;SDS011;34357;51.948;6.132;2023-01-05T02:50:00;44.80;;;5.82;;
48578;SDS011;34357;51.948;6.132;2023-01-05T02:52:34;49.13;;;7.05;;
48578;SDS011;34357;51.948;6.132;2023-01-05T02:55:21;42.17;;;5.55;;
48578;SDS011;34357;51.948;6.132;2023-01-05T02:58:04;44.88;;;6.63;;
48578;SDS011;34357;51.948;6.132;2023-01-05T03:00:38;54.10;;;7.40;;
48578;SDS011;34357;51.948;6.132;2023-01-05T03:03:12;45.83;;;6.63;;
48578;SDS011;34357;51.948;6.132;2023-01-05T03:05:52;54.75;;;7.47;;
48578;SDS011;34357;51.948;6.132;2023-01-05T03:08:24;44.50;;;7.32;;
48578;SDS011;34357;51.948;6.132;2023-01-05T03:13:41;45.78;;;6.85;;
48578;SDS011;34357;51.948;6.132;2023-01-05T03:16:17;44.72;;;6.50;;
48578;SDS011;34357;51.948;6.132;2023-01-05T03:18:51;48.35;;;6.93;;
48578;SDS011;34357;51.948;6.132;2023-01-05T03:21:38;44.58;;;6.70;;
48578;SDS011;34357;51.948;6.132;2023-01-05T03:24:23;57.63;;;7.07;;
48578;SDS011;34357;51.948;6.132;2023-01-05T03:27:10;54.55;;;8.23;;
48578;SDS011;34357;51.948;6.132;2023-01-05T03:29:58;32.00;;;5.22;;
48578;SDS011;34357;51.948;6.132;2023-01-05T03:32:44;35.15;;;5.30;;
48578;SDS011;34357;51.948;6.132;2023-01-05T03:35:33;49.67;;;7.25;;
48578;SDS011;34357;51.948;6.132;2023-01-05T03:40:51;32.47;;;4.53;;
48578;SDS011;34357;51.948;6.132;2023-01-05T03:43:20;35.83;;;6.07;;
48578;SDS011;34357;51.948;6.132;2023-01-05T03:45:55;42.55;;;6.68;;
48578;SDS011;34357;51.948;6.132;2023-01-05T03:48:25;44.53;;;6.65;;
48578;SDS011;34357;51.948;6.132;2023-01-05T03:50:53;36.88;;;5.65;;
48578;SDS011;34357;51.948;6.132;2023-01-05T03:53:21;48.00;;;7.15;;
48578;SDS011;34357;51.948;6.132;2023-01-05T03:55:48;47.50;;;7.35;;
48578;SDS011;34357;51.948;6.132;2023-01-05T03:58:13;43.17;;;7.07;;
48578;SDS011;34357;51.948;6.132;2023-01-05T04:00:43;52.83;;;8.52;;
48578;SDS011;34357;51.948;6.132;2023-01-05T04:03:11;51.10;;;7.68;;
48578;SDS011;34357;51.948;6.132;2023-01-05T04:05:37;34.33;;;6.13;;
48578;SDS011;34357;51.948;6.132;2023-01-05T04:08:03;43.88;;;6.18;;
48578;SDS011;34357;51.948;6.132;2023-01-05T04:10:31;49.63;;;8.23;;
48578;SDS011;34357;51.948;6.132;2023-01-05T04:12:59;51.75;;;6.93;;
48578;SDS011;34357;51.948;6.132;2023-01-05T04:15:24;24.13;;;3.70;;
48578;SDS011;34357;51.948;6.132;2023-01-05T04:17:52;37.97;;;5.78;;
48578;SDS011;34357;51.948;6.132;2023-01-05T04:20:18;51.90;;;7.20;;
48578;SDS011;34357;51.948;6.132;2023-01-05T04:22:44;44.67;;;6.65;;
48578;SDS011;34357;51.948;6.132;2023-01-05T04:25:10;44.50;;;7.13;;
48578;SDS011;34357;51.948;6.132;2023-01-05T04:27:37;55.55;;;8.32;;
48578;SDS011;34357;51.948;6.132;2023-01-05T04:30:04;46.88;;;6.30;;
48578;SDS011;34357;51.948;6.132;2023-01-05T04:32:32;43.58;;;7.07;;
48578;SDS011;34357;51.948;6.132;2023-01-05T04:34:57;54.72;;;8.65;;
48578;SDS011;34357;51.948;6.132;2023-01-05T04:37:24;50.65;;;7.25;;
48578;SDS011;34357;51.948;6.132;2023-01-05T04:39:51;40.28;;;6.53;;
48578;SDS011;34357;51.948;6.132;2023-01-05T04:42:17;59.50;;;8.05;;
48578;SDS011;34357;51.948;6.132;2023-01-05T04:44:47;39.03;;;6.10;;
48578;SDS011;34357;51.948;6.132;2023-01-05T04:47:13;33.80;;;5.10;;
48578;SDS011;34357;51.948;6.132;2023-01-05T04:49:40;50.75;;;7.43;;
48578;SDS011;34357;51.948;6.132;2023-01-05T04:52:07;46.80;;;6.13;;
48578;SDS011;34357;51.948;6.132;2023-01-05T04:54:34;35.78;;;5.55;;
48578;SDS011;34357;51.948;6.132;2023-01-05T04:57:00;42.50;;;5.63;;
48578;SDS011;34357;51.948;6.132;2023-01-05T04:59:28;25.05;;;4.47;;
48578;SDS011;34357;51.948;6.132;2023-01-05T05:01:58;34.25;;;5.72;;
48578;SDS011;34357;51.948;6.132;2023-01-05T05:04:26;43.10;;;7.10;;
48578;SDS011;34357;51.948;6.132;2023-01-05T05:06:53;42.58;;;6.45;;
48578;SDS011;34357;51.948;6.132;2023-01-05T05:09:22;47.00;;;6.45;;
48578;SDS011;34357;51.948;6.132;2023-01-05T05:11:48;37.38;;;6.50;;
48578;SDS011;34357;51.948;6.132;2023-01-05T05:14:15;42.55;;;6.47;;
48578;SDS011;34357;51.948;6.132;2023-01-05T05:16:41;48.35;;;6.70;;
48578;SDS011;34357;51.948;6.132;2023-01-05T05:19:08;34.33;;;5.35;;
48578;SDS011;34357;51.948;6.132;2023-01-05T05:21:34;39.33;;;5.90;;
48578;SDS011;34357;51.948;6.132;2023-01-05T05:24:02;48.08;;;6.68;;
48578;SDS011;34357;51.948;6.132;2023-01-05T05:26:28;45.42;;;6.78;;
48578;SDS011;34357;51.948;6.132;2023-01-05T05:28:53;51.33;;;6.70;;
48578;SDS011;34357;51.948;6.132;2023-01-05T05:31:21;54.60;;;7.82;;
48578;SDS011;34357;51.948;6.132;2023-01-05T05:33:47;45.22;;;6.95;;
48578;SDS011;34357;51.948;6.132;2023-01-05T05:36:13;42.33;;;6.47;;
48578;SDS011;34357;51.948;6.132;2023-01-05T05:38:39;47.55;;;7.28;;
48578;SDS011;34357;51.948;6.132;2023-01-05T05:41:04;37.92;;;5.68;;
48578;SDS011;34357;51.948;6.132;2023-01-05T05:43:30;49.15;;;6.75;;
48578;SDS011;34357;51.948;6.132;2023-01-05T05:45:56;55.17;;;8.18;;
48578;SDS011;34357;51.948;6.132;2023-01-05T05:48:21;39.92;;;6.47;;
48578;SDS011;34357;51.948;6.132;2023-01-05T05:50:47;42.72;;;6.82;;
48578;SDS011;34357;51.948;6.132;2023-01-05T05:53:13;42.63;;;7.47;;
48578;SDS011;34357;51.948;6.132;2023-01-05T05:55:39;49.47;;;7.45;;
48578;SDS011;34357;51.948;6.132;2023-01-05T05:58:05;44.97;;;6.30;;
48578;SDS011;34357;51.948;6.132;2023-01-05T06:00:30;48.80;;;7.50;;
48578;SDS011;34357;51.948;6.132;2023-01-05T06:02:56;55.22;;;7.45;;
48578;SDS011;34357;51.948;6.132;2023-01-05T06:05:22;48.47;;;7.60;;
48578;SDS011;34357;51.948;6.132;2023-01-05T06:07:48;56.63;;;6.95;;
48578;SDS011;34357;51.948;6.132;2023-01-05T06:10:13;49.42;;;7.10;;
48578;SDS011;34357;51.948;6.132;2023-01-05T06:12:39;37.95;;;5.78;;
48578;SDS011;34357;51.948;6.132;2023-01-05T06:15:05;49.30;;;6.10;;
48578;SDS011;34357;51.948;6.132;2023-01-05T06:17:31;45.45;;;6.32;;
48578;SDS011;34357;51.948;6.132;2023-01-05T06:19:57;45.80;;;6.47;;
48578;SDS011;34357;51.948;6.132;2023-01-05T06:22:22;52.30;;;7.57;;
48578;SDS011;34357;51.948;6.132;2023-01-05T06:24:48;45.50;;;6.40;;
48578;SDS011;34357;51.948;6.132;2023-01-05T06:27:14;39.70;;;5.68;;
48578;SDS011;34357;51.948;6.132;2023-01-05T06:29:39;36.63;;;5.60;;
48578;SDS011;34357;51.948;6.132;2023-01-05T06:32:05;36.25;;;6.45;;
48578;SDS011;34357;51.948;6.132;2023-01-05T06:34:31;43.78;;;6.28;;
48578;SDS011;34357;51.948;6.132;2023-01-05T06:36:57;45.05;;;5.90;;
48578;SDS011;34357;51.948;6.132;2023-01-05T06:39:23;43.33;;;6.55;;
48578;SDS011;34357;51.948;6.132;2023-01-05T06:41:49;50.95;;;6.50;;
48578;SDS011;34357;51.948;6.132;2023-01-05T06:44:14;50.63;;;6.80;;
48578;SDS011;34357;51.948;6.132;2023-01-05T06:46:40;42.95;;;6.05;;
48578;SDS011;34357;51.948;6.132;2023-01-05T06:49:06;41.92;;;6.70;;
48578;SDS011;34357;51.948;6.132;2023-01-05T06:51:32;42.60;;;7.30;;
48578;SDS011;34357;51.948;6.132;2023-01-05T06:53:58;47.67;;;6.70;;
48578;SDS011;34357;51.948;6.132;2023-01-05T06:56:23;40.53;;;5.72;;
48578;SDS011;34357;51.948;6.132;2023-01-05T06:58:49;44.03;;;5.38;;
48578;SDS011;34357;51.948;6.132;2023-01-05T07:01:15;48.70;;;6.32;;
48578;SDS011;34357;51.948;6.132;2023-01-05T07:03:40;30.67;;;6.07;;
48578;SDS011;34357;51.948;6.132;2023-01-05T07:06:06;51.10;;;6.72;;
48578;SDS011;34357;51.948;6.132;2023-01-05T07:08:32;50.58;;;7.72;;
48578;SDS011;34357;51.948;6.132;2023-01-05T07:10:58;55.08;;;7.85;;
48578;SDS011;34357;51.948;6.132;2023-01-05T07:13:24;56.97;;;7.28;;
48578;SDS011;34357;51.948;6.132;2023-01-05T07:15:49;57.45;;;7.40;;
48578;SDS011;34357;51.948;6.132;2023-01-05T07:18:15;60.13;;;7.50;;
48578;SDS011;34357;51.948;6.132;2023-01-05T07:20:41;57.78;;;7.63;;
48578;SDS011;34357;51.948;6.132;2023-01-05T07:23:06;51.40;;;7.30;;
48578;SDS011;34357;51.948;6.132;2023-01-05T07:25:32;46.05;;;7.45;;
48578;SDS011;34357;51.948;6.132;2023-01-05T07:27:58;53.22;;;7.32;;
48578;SDS011;34357;51.948;6.132;2023-01-05T07:30:23;50.97;;;6.22;;
48578;SDS011;34357;51.948;6.132;2023-01-05T07:32:49;48.38;;;6.47;;
48578;SDS011;34357;51.948;6.132;2023-01-05T07:35:15;56.58;;;8.32;;
48578;SDS011;34357;51.948;6.132;2023-01-05T07:37:41;43.17;;;6.38;;
48578;SDS011;34357;51.948;6.132;2023-01-05T07:40:08;49.45;;;6.90;;
48578;SDS011;34357;51.948;6.132;2023-01-05T07:42:35;47.25;;;6.63;;
48578;SDS011;34357;51.948;6.132;2023-01-05T07:45:01;51.15;;;6.47;;
48578;SDS011;34357;51.948;6.132;2023-01-05T07:47:27;53.13;;;7.25;;
48578;SDS011;34357;51.948;6.132;2023-01-05T07:49:53;49.47;;;6.78;;
48578;SDS011;34357;51.948;6.132;2023-01-05T07:52:18;25.80;;;3.45;;
48578;SDS011;34357;51.948;6.132;2023-01-05T07:54:44;52.30;;;7.18;;
48578;SDS011;34357;51.948;6.132;2023-01-05T07:57:10;49.35;;;6.65;;
48578;SDS011;34357;51.948;6.132;2023-01-05T07:59:36;45.13;;;6.47;;
48578;SDS011;34357;51.948;6.132;2023-01-05T08:02:01;56.33;;;6.85;;
48578;SDS011;34357;51.948;6.132;2023-01-05T08:04:27;56.67;;;8.90;;
48578;SDS011;34357;51.948;6.132;2023-01-05T08:06:53;49.15;;;6.28;;
48578;SDS011;34357;51.948;6.132;2023-01-05T08:09:18;45.90;;;6.05;;
48578;SDS011;34357;51.948;6.132;2023-01-05T08:12:03;59.33;;;7.32;;
48578;SDS011;34357;51.948;6.132;2023-01-05T08:14:29;49.65;;;6.60;;
48578;SDS011;34357;51.948;6.132;2023-01-05T08:16:54;53.15;;;8.27;;
48578;SDS011;34357;51.948;6.132;2023-01-05T08:19:20;52.17;;;7.82;;
48578;SDS011;34357;51.948;6.132;2023-01-05T08:21:46;44.10;;;6.75;;
48578;SDS011;34357;51.948;6.132;2023-01-05T08:24:12;45.28;;;5.93;;
48578;SDS011;34357;51.948;6.132;2023-01-05T08:26:37;42.85;;;5.88;;
48578;SDS011;34357;51.948;6.132;2023-01-05T08:29:03;54.05;;;6.95;;
48578;SDS011;34357;51.948;6.132;2023-01-05T08:31:30;49.30;;;7.30;;
48578;SDS011;34357;51.948;6.132;2023-01-05T08:34:01;48.78;;;7.15;;
48578;SDS011;34357;51.948;6.132;2023-01-05T08:36:28;47.13;;;6.25;;
48578;SDS011;34357;51.948;6.132;2023-01-05T08:38:55;52.70;;;7.45;;
48578;SDS011;34357;51.948;6.132;2023-01-05T08:41:25;38.95;;;5.40;;
48578;SDS011;34357;51.948;6.132;2023-01-05T08:43:53;49.55;;;8.18;;
48578;SDS011;34357;51.948;6.132;2023-01-05T08:46:21;57.35;;;7.65;;
48578;SDS011;34357;51.948;6.132;2023-01-05T08:48:49;47.13;;;7.50;;
48578;SDS011;34357;51.948;6.132;2023-01-05T08:51:16;49.88;;;7.70;;
48578;SDS011;34357;51.948;6.132;2023-01-05T08:53:42;40.58;;;6.00;;
48578;SDS011;34357;51.948;6.132;2023-01-05T08:56:08;43.42;;;7.32;;
48578;SDS011;34357;51.948;6.132;2023-01-05T08:58:39;41.65;;;5.38;;
48578;SDS011;34357;51.948;6.132;2023-01-05T09:01:09;45.22;;;6.35;;
48578;SDS011;34357;51.948;6.132;2023-01-05T09:03:37;66.55;;;7.82;;
48578;SDS011;34357;51.948;6.132;2023-01-05T09:06:03;42.58;;;5.43;;
48578;SDS011;34357;51.948;6.132;2023-01-05T09:08:30;44.13;;;6.50;;
48578;SDS011;34357;51.948;6.132;2023-01-05T09:11:07;39.78;;;6.90;;
48578;SDS011;34357;51.948;6.132;2023-01-05T09:13:41;49.35;;;7.15;;
48578;SDS011;34357;51.948;6.132;2023-01-05T09:16:11;49.75;;;7.30;;
48578;SDS011;34357;51.948;6.132;2023-01-05T09:18:39;48.65;;;6.82;;
48578;SDS011;34357;51.948;6.132;2023-01-05T09:21:06;41.33;;;6.65;;
48578;SDS011;34357;51.948;6.132;2023-01-05T09:23:33;50.95;;;8.82;;
48578;SDS011;34357;51.948;6.132;2023-01-05T09:26:02;48.90;;;7.97;;
48578;SDS011;34357;51.948;6.132;2023-01-05T09:28:29;57.20;;;8.20;;
48578;SDS011;34357;51.948;6.132;2023-01-05T09:30:55;44.08;;;6.40;;
48578;SDS011;34357;51.948;6.132;2023-01-05T09:33:21;41.00;;;7.38;;
48578;SDS011;34357;51.948;6.132;2023-01-05T09:35:53;41.88;;;6.88;;
48578;SDS011;34357;51.948;6.132;2023-01-05T09:38:20;57.90;;;8.00;;
48578;SDS011;34357;51.948;6.132;2023-01-05T09:40:47;42.47;;;6.20;;
48578;SDS011;34357;51.948;6.132;2023-01-05T09:43:36;45.70;;;6.30;;
48578;SDS011;34357;51.948;6.132;2023-01-05T09:46:03;48.58;;;7.90;;
48578;SDS011;34357;51.948;6.132;2023-01-05T09:48:37;43.28;;;6.63;;
48578;SDS011;34357;51.948;6.132;2023-01-05T09:51:06;43.30;;;7.63;;
48578;SDS011;34357;51.948;6.132;2023-01-05T09:53:32;40.38;;;6.28;;
48578;SDS011;34357;51.948;6.132;2023-01-05T09:55:59;40.42;;;5.60;;
48578;SDS011;34357;51.948;6.132;2023-01-05T09:58:26;60.03;;;7.65;;
48578;SDS011;34357;51.948;6.132;2023-01-05T10:03:50;40.05;;;6.50;;
48578;SDS011;34357;51.948;6.132;2023-01-05T10:06:24;47.35;;;6.82;;
48578;SDS011;34357;51.948;6.132;2023-01-05T10:08:53;39.67;;;6.25;;
48578;SDS011;34357;51.948;6.132;2023-01-05T10:11:26;52.90;;;7.63;;
48578;SDS011;34357;51.948;6.132;2023-01-05T10:14:21;46.05;;;7.10;;
48578;SDS011;34357;51.948;6.132;2023-01-05T10:16:52;48.38;;;6.93;;
48578;SDS011;34357;51.948;6.132;2023-01-05T10:19:18;43.33;;;6.15;;
48578;SDS011;34357;51.948;6.132;2023-01-05T10:24:42;39.40;;;5.53;;
48578;SDS011;34357;51.948;6.132;2023-01-05T10:27:17;49.22;;;6.85;;
48578;SDS011;34357;51.948;6.132;2023-01-05T10:40:44;44.63;;;6.78;;
48578;SDS011;34357;51.948;6.132;2023-01-05T10:48:29;41.88;;;6.75;;
48578;SDS011;34357;51.948;6.132;2023-01-05T10:50:58;51.85;;;8.30;;
48578;SDS011;34357;51.948;6.132;2023-01-05T10:53:26;50.63;;;7.22;;
48578;SDS011;34357;51.948;6.132;2023-01-05T10:58:26;40.05;;;6.50;;
48578;SDS011;34357;51.948;6.132;2023-01-05T11:00:56;53.70;;;6.78;;
48578;SDS011;34357;51.948;6.132;2023-01-05T11:03:32;45.47;;;6.90;;
48578;SDS011;34357;51.948;6.132;2023-01-05T11:06:00;42.08;;;6.85;;
48578;SDS011;34357;51.948;6.132;2023-01-05T11:08:28;39.55;;;5.78;;
48578;SDS011;34357;51.948;6.132;2023-01-05T11:10:56;50.83;;;8.00;;
48578;SDS011;34357;51.948;6.132;2023-01-05T11:13:28;48.55;;;8.18;;
48578;SDS011;34357;51.948;6.132;2023-01-05T11:21:13;44.80;;;7.10;;
48578;SDS011;34357;51.948;6.132;2023-01-05T11:23:45;48.17;;;7.38;;
48578;SDS011;34357;51.948;6.132;2023-01-05T11:26:29;49.08;;;6.50;;
48578;SDS011;34357;51.948;6.132;2023-01-05T11:34:01;41.58;;;6.78;;
48578;SDS011;34357;51.948;6.132;2023-01-05T11:36:33;54.38;;;7.28;;
48578;SDS011;34357;51.948;6.132;2023-01-05T11:38:59;43.13;;;7.13;;
48578;SDS011;34357;51.948;6.132;2023-01-05T11:41:25;45.95;;;7.63;;
48578;SDS011;34357;51.948;6.132;2023-01-05T11:43:51;45.40;;;6.55;;
48578;SDS011;34357;51.948;6.132;2023-01-05T11:46:18;41.72;;;6.07;;
48578;SDS011;34357;51.948;6.132;2023-01-05T11:48:52;49.97;;;8.32;;
48578;SDS011;34357;51.948;6.132;2023-01-05T11:51:36;51.88;;;8.90;;
48578;SDS011;34357;51.948;6.132;2023-01-05T11:54:04;48.80;;;6.65;;
48578;SDS011;34357;51.948;6.132;2023-01-05T11:56:48;49.08;;;7.40;;
48578;SDS011;34357;51.948;6.132;2023-01-05T11:59:30;49.22;;;7.47;;
48578;SDS011;34357;51.948;6.132;2023-01-05T12:02:03;43.45;;;6.18;;
48578;SDS011;34357;51.948;6.132;2023-01-05T12:07:28;47.03;;;6.45;;
48578;SDS011;34357;51.948;6.132;2023-01-05T12:12:43;50.17;;;7.50;;
48578;SDS011;34357;51.948;6.132;2023-01-05T12:21:24;44.28;;;7.93;;
48578;SDS011;34357;51.948;6.132;2023-01-05T12:23:57;51.25;;;7.82;;
48578;SDS011;34357;51.948;6.132;2023-01-05T12:29:23;42.70;;;7.45;;
48578;SDS011;34357;51.948;6.132;2023-01-05T12:37:30;34.97;;;6.32;;
48578;SDS011;34357;51.948;6.132;2023-01-05T12:42:56;44.65;;;6.95;;
48578;SDS011;34357;51.948;6.132;2023-01-05T12:48:15;42.75;;;7.10;;
48578;SDS011;34357;51.948;6.132;2023-01-05T12:50:51;38.05;;;6.32;;
48578;SDS011;34357;51.948;6.132;2023-01-05T12:56:47;39.20;;;6.00;;
48578;SDS011;34357;51.948;6.132;2023-01-05T12:59:20;44.53;;;7.20;;
48578;SDS011;34357;51.948;6.132;2023-01-05T13:01:58;44.10;;;8.00;;
48578;SDS011;34357;51.948;6.132;2023-01-05T13:04:56;40.58;;;6.38;;
48578;SDS011;34357;51.948;6.132;2023-01-05T13:13:21;43.42;;;6.95;;
48578;SDS011;34357;51.948;6.132;2023-01-05T13:16:07;36.22;;;6.10;;
48578;SDS011;34357;51.948;6.132;2023-01-05T13:18:43;29.75;;;5.30;;
48578;SDS011;34357;51.948;6.132;2023-01-05T13:21:15;37.25;;;6.53;;
48578;SDS011;34357;51.948;6.132;2023-01-05T13:26:14;46.67;;;6.93;;
48578;SDS011;34357;51.948;6.132;2023-01-05T13:28:42;40.17;;;6.35;;
48578;SDS011;34357;51.948;6.132;2023-01-05T13:53:51;33.53;;;5.38;;
48578;SDS011;34357;51.948;6.132;2023-01-05T13:56:22;34.17;;;6.53;;
48578;SDS011;34357;51.948;6.132;2023-01-05T13:59:01;39.33;;;6.68;;
48578;SDS011;34357;51.948;6.132;2023-01-05T14:01:43;30.85;;;5.30;;
48578;SDS011;34357;51.948;6.132;2023-01-05T14:04:17;37.15;;;6.38;;
48578;SDS011;34357;51.948;6.132;2023-01-05T14:06:45;42.08;;;6.68;;
48578;SDS011;34357;51.948;6.132;2023-01-05T14:20:34;30.75;;;5.40;;
48578;SDS011;34357;51.948;6.132;2023-01-05T14:26:01;38.78;;;6.65;;
48578;SDS011;34357;51.948;6.132;2023-01-05T14:33:47;41.00;;;5.95;;
48578;SDS011;34357;51.948;6.132;2023-01-05T14:38:55;41.75;;;8.07;;
48578;SDS011;34357;51.948;6.132;2023-01-05T14:41:22;37.00;;;6.53;;
48578;SDS011;34357;51.948;6.132;2023-01-05T14:43:57;43.13;;;7.05;;
48578;SDS011;34357;51.948;6.132;2023-01-05T14:46:27;39.33;;;7.22;;
48578;SDS011;34357;51.948;6.132;2023-01-05T14:49:06;50.22;;;8.25;;
48578;SDS011;34357;51.948;6.132;2023-01-05T14:51:40;46.40;;;6.88;;
48578;SDS011;34357;51.948;6.132;2023-01-05T14:54:33;40.25;;;6.63;;
48578;SDS011;34357;51.948;6.132;2023-01-05T15:02:40;58.65;;;7.95;;
48578;SDS011;34357;51.948;6.132;2023-01-05T15:05:16;49.13;;;8.40;;
48578;SDS011;34357;51.948;6.132;2023-01-05T15:17:05;51.63;;;7.95;;
48578;SDS011;34357;51.948;6.132;2023-01-05T15:27:55;46.28;;;7.13;;
48578;SDS011;34357;51.948;6.132;2023-01-05T15:36:02;41.95;;;7.25;;
48578;SDS011;34357;51.948;6.132;2023-01-05T15:38:30;43.90;;;7.18;;
48578;SDS011;34357;51.948;6.132;2023-01-05T15:41:07;47.30;;;7.25;;
48578;SDS011;34357;51.948;6.132;2023-01-05T15:43:36;50.35;;;8.23;;
48578;SDS011;34357;51.948;6.132;2023-01-05T15:46:04;45.15;;;6.53;;
48578;SDS011;34357;51.948;6.132;2023-01-05T15:48:32;46.13;;;7.57;;
48578;SDS011;34357;51.948;6.132;2023-01-05T15:51:09;48.08;;;7.82;;
48578;SDS011;34357;51.948;6.132;2023-01-05T15:53:51;39.05;;;6.90;;
48578;SDS011;34357;51.948;6.132;2023-01-05T16:02:20;49.30;;;9.40;;
48578;SDS011;34357;51.948;6.132;2023-01-05T16:07:50;41.05;;;7.72;;
48578;SDS011;34357;51.948;6.132;2023-01-05T16:12:45;44.42;;;9.45;;
48578;SDS011;34357;51.948;6.132;2023-01-05T16:15:14;47.05;;;8.65;;
48578;SDS011;34357;51.948;6.132;2023-01-05T16:17:45;43.13;;;7.95;;
48578;SDS011;34357;51.948;6.132;2023-01-05T16:20:14;47.58;;;9.70;;
48578;SDS011;34357;51.948;6.132;2023-01-05T16:25:23;60.03;;;10.27;;
48578;SDS011;34357;51.948;6.132;2023-01-05T16:27:55;61.17;;;11.73;;
48578;SDS011;34357;51.948;6.132;2023-01-05T16:30:33;59.35;;;13.35;;
48578;SDS011;34357;51.948;6.132;2023-01-05T16:40:55;48.13;;;10.43;;
48578;SDS011;34357;51.948;6.132;2023-01-05T16:48:43;67.38;;;12.88;;
48578;SDS011;34357;51.948;6.132;2023-01-05T16:51:12;62.60;;;14.02;;
48578;SDS011;34357;51.948;6.132;2023-01-05T16:53:42;71.47;;;18.05;;
48578;SDS011;34357;51.948;6.132;2023-01-05T16:56:17;64.00;;;16.25;;
48578;SDS011;34357;51.948;6.132;2023-01-05T16:58:47;81.40;;;23.35;;
48578;SDS011;34357;51.948;6.132;2023-01-05T17:03:44;85.95;;;24.25;;
48578;SDS011;34357;51.948;6.132;2023-01-05T17:06:20;89.55;;;26.45;;
48578;SDS011;34357;51.948;6.132;2023-01-05T17:08:59;100.88;;;29.75;;
48578;SDS011;34357;51.948;6.132;2023-01-05T17:11:27;96.88;;;27.25;;
48578;SDS011;34357;51.948;6.132;2023-01-05T17:13:58;98.35;;;27.05;;
48578;SDS011;34357;51.948;6.132;2023-01-05T17:16:25;85.22;;;25.83;;
48578;SDS011;34357;51.948;6.132;2023-01-05T17:18:51;90.88;;;26.92;;
48578;SDS011;34357;51.948;6.132;2023-01-05T17:21:18;103.25;;;32.65;;
48578;SDS011;34357;51.948;6.132;2023-01-05T17:23:47;105.32;;;38.25;;
48578;SDS011;34357;51.948;6.132;2023-01-05T17:26:16;103.63;;;31.65;;
48578;SDS011;34357;51.948;6.132;2023-01-05T17:28:48;97.25;;;28.50;;
48578;SDS011;34357;51.948;6.132;2023-01-05T17:31:16;95.38;;;25.88;;
48578;SDS011;34357;51.948;6.132;2023-01-05T17:33:42;91.60;;;25.23;;
48578;SDS011;34357;51.948;6.132;2023-01-05T17:36:07;92.35;;;27.33;;
48578;SDS011;34357;51.948;6.132;2023-01-05T17:38:33;87.10;;;26.02;;
48578;SDS011;34357;51.948;6.132;2023-01-05T17:40:59;95.53;;;33.28;;
48578;SDS011;34357;51.948;6.132;2023-01-05T17:43:25;144.00;;;66.82;;
48578;SDS011;34357;51.948;6.132;2023-01-05T17:45:51;125.13;;;51.08;;
48578;SDS011;34357;51.948;6.132;2023-01-05T17:48:17;88.70;;;28.27;;
48578;SDS011;34357;51.948;6.132;2023-01-05T17:50:42;76.90;;;25.13;;
48578;SDS011;34357;51.948;6.132;2023-01-05T17:53:09;73.18;;;23.17;;
48578;SDS011;34357;51.948;6.132;2023-01-05T17:55:34;82.55;;;25.17;;
48578;SDS011;34357;51.948;6.132;2023-01-05T17:58:00;86.95;;;27.13;;
48578;SDS011;34357;51.948;6.132;2023-01-05T18:00:27;90.47;;;30.73;;
48578;SDS011;34357;51.948;6.132;2023-01-05T18:02:57;85.80;;;27.25;;
48578;SDS011;34357;51.948;6.132;2023-01-05T18:05:23;76.30;;;23.23;;
48578;SDS011;34357;51.948;6.132;2023-01-05T18:07:49;67.32;;;20.17;;
48578;SDS011;34357;51.948;6.132;2023-01-05T18:10:19;65.25;;;19.92;;
48578;SDS011;34357;51.948;6.132;2023-01-05T18:12:47;69.35;;;20.35;;
48578;SDS011;34357;51.948;6.132;2023-01-05T18:15:13;68.57;;;17.77;;
48578;SDS011;34357;51.948;6.132;2023-01-05T18:17:39;72.00;;;20.10;;
48578;SDS011;34357;51.948;6.132;2023-01-05T18:20:06;91.45;;;41.15;;